createdAt,value
2022-09-14T00:00:44.805Z,100505.63
2022-09-14T00:03:11.586Z,100503.13
2022-09-14T00:05:38.264Z,100519.06
2022-09-14T00:08:04.853Z,100499.50
2022-09-14T00:10:31.321Z,100487.94
2022-09-14T00:12:58.163Z,100508.41
2022-09-14T00:15:24.576Z,100505.22
2022-09-14T00:17:50.930Z,100501.03
2022-09-14T00:20:17.399Z,100502.41
2022-09-14T00:22:43.981Z,100489.56
2022-09-14T00:25:10.370Z,100490.41
2022-09-14T00:27:36.859Z,100496.81
2022-09-14T00:30:03.859Z,100488.25
2022-09-14T00:32:30.275Z,100475.56
2022-09-14T00:34:56.985Z,100477.59
2022-09-14T00:37:23.349Z,100453.34
2022-09-14T00:39:50.353Z,100470.88
2022-09-14T00:42:19.503Z,100474.59
2022-09-14T00:44:45.786Z,100457.81
2022-09-14T00:47:14.978Z,100422.72
2022-09-14T00:49:43.309Z,100444.44
2022-09-14T00:52:16.092Z,100449.47
2022-09-14T00:54:48.516Z,100444.63
2022-09-14T00:57:17.174Z,100410.56
2022-09-14T00:59:44.883Z,100435.41
2022-09-14T01:02:14.903Z,100446.56
2022-09-14T01:04:43.274Z,100429.81
2022-09-14T01:07:33.528Z,100442.53
2022-09-14T01:10:21.876Z,100442.06
2022-09-14T01:13:06.260Z,100431.22
2022-09-14T01:15:59.639Z,100440.81
2022-09-14T01:18:36.210Z,100436.53
2022-09-14T01:21:12.316Z,100425.66
2022-09-14T01:24:14.689Z,100403.13
2022-09-14T01:26:56.195Z,100449.03
2022-09-14T01:29:44.287Z,100454.91
2022-09-14T01:32:28.939Z,100458.13
2022-09-14T01:35:14.125Z,100451.38
2022-09-14T01:37:57.353Z,100456.94
2022-09-14T01:40:37.303Z,100438.03
2022-09-14T01:43:06.538Z,100435.50
2022-09-14T01:45:34.770Z,100440.88
2022-09-14T01:48:04.623Z,100447.69
2022-09-14T01:50:41.554Z,100440.81
2022-09-14T01:53:19.196Z,100444.88
2022-09-14T01:56:10.883Z,100443.69
2022-09-14T01:58:47.024Z,100450.06
2022-09-14T02:01:20.226Z,100439.53
2022-09-14T02:03:53.256Z,100439.81
2022-09-14T02:06:44.123Z,100444.19
2022-09-14T02:09:16.539Z,100424.63
2022-09-14T02:11:43.114Z,100443.56
2022-09-14T02:14:09.891Z,100407.25
2022-09-14T02:16:36.588Z,100431.84
2022-09-14T02:19:03.428Z,100436.53
2022-09-14T02:21:31.837Z,100437.22
2022-09-14T02:23:59.278Z,100440.38
2022-09-14T02:26:26.270Z,100437.03
2022-09-14T02:28:56.098Z,100413.16
2022-09-14T02:31:25.515Z,100441.22
2022-09-14T02:34:32.329Z,100436.88
2022-09-14T02:37:16.916Z,100442.41
2022-09-14T02:40:01.692Z,100440.28
2022-09-14T02:42:38.791Z,100420.31
2022-09-14T02:45:26.532Z,100420.53
2022-09-14T02:48:21.310Z,100397.78
2022-09-14T02:51:07.775Z,100418.03
2022-09-14T02:53:45.956Z,100434.25
2022-09-14T02:56:13.951Z,100415.88
2022-09-14T02:58:44.055Z,100413.50
2022-09-14T03:01:14.195Z,100384.41
2022-09-14T03:03:40.642Z,100426.22
2022-09-14T03:06:07.078Z,100391.09
2022-09-14T03:08:33.688Z,100407.47
2022-09-14T03:11:00.013Z,100409.81
2022-09-14T03:13:26.387Z,100416.97
2022-09-14T03:15:53.519Z,100434.72
2022-09-14T03:18:20.425Z,100425.19
2022-09-14T03:20:46.916Z,100428.31
2022-09-14T03:23:14.147Z,100402.78
2022-09-14T03:25:46.921Z,100425.47
2022-09-14T03:28:13.301Z,100417.13
2022-09-14T03:30:39.955Z,100389.38
2022-09-14T03:33:06.673Z,100408.59
2022-09-14T03:35:33.474Z,100402.91
2022-09-14T03:38:00.326Z,100390.38
2022-09-14T03:40:27.523Z,100401.22
2022-09-14T03:43:04.591Z,100410.47
2022-09-14T03:45:30.983Z,100397.44
2022-09-14T03:47:57.412Z,100395.28
2022-09-14T03:50:23.838Z,100395.81
2022-09-14T03:52:50.596Z,100374.75
2022-09-14T03:55:17.045Z,100394.28
2022-09-14T03:57:43.418Z,100373.06
2022-09-14T04:00:11.355Z,100391.13
2022-09-14T04:02:38.348Z,100394.81
2022-09-14T04:05:05.240Z,100376.09
2022-09-14T04:07:31.670Z,100359.81
2022-09-14T04:09:58.388Z,100377.88
2022-09-14T04:12:24.927Z,100372.16
2022-09-14T04:14:51.384Z,100363.44
2022-09-14T04:17:17.797Z,100372.13
2022-09-14T04:19:44.404Z,100360.06
2022-09-14T04:22:10.777Z,100362.53
2022-09-14T04:24:37.252Z,100358.47
2022-09-14T04:27:03.718Z,100347.63
2022-09-14T04:29:30.581Z,100349.41
2022-09-14T04:31:57.523Z,100362.44
2022-09-14T04:34:26.374Z,100372.13
2022-09-14T04:36:52.915Z,100362.06
2022-09-14T04:39:19.569Z,100385.13
2022-09-14T04:41:45.992Z,100377.41
2022-09-14T04:44:12.556Z,100364.03
2022-09-14T04:46:46.607Z,100392.09
2022-09-14T04:49:15.668Z,100398.44
2022-09-14T04:51:42.178Z,100373.63
2022-09-14T04:54:12.556Z,100394.31
2022-09-14T04:56:38.932Z,100395.25
2022-09-14T04:59:05.887Z,100391.19
2022-09-14T05:01:37.886Z,100392.16
2022-09-14T05:04:05.808Z,100381.06
2022-09-14T05:06:34.007Z,100380.97
2022-09-14T05:09:02.028Z,100381.28
2022-09-14T05:11:34.764Z,100388.78
2022-09-14T05:14:01.904Z,100373.41
2022-09-14T05:16:31.663Z,100377.31
2022-09-14T05:19:03.786Z,100385.09
2022-09-14T05:21:32.059Z,100376.66
2022-09-14T05:24:00.801Z,100384.19
2022-09-14T05:26:29.394Z,100373.91
2022-09-14T05:28:58.995Z,100378.91
2022-09-14T05:31:26.680Z,100342.84
2022-09-14T05:33:53.840Z,100361.50
2022-09-14T05:36:20.705Z,100364.63
2022-09-14T05:38:47.132Z,100372.94
2022-09-14T05:41:14.965Z,100371.91
2022-09-14T05:43:42.274Z,100365.88
2022-09-14T05:46:12.671Z,100385.72
2022-09-14T05:48:40.001Z,100368.47
2022-09-14T05:51:10.160Z,100380.34
2022-09-14T05:53:36.575Z,100395.38
2022-09-14T05:56:11.784Z,100392.13
2022-09-14T05:58:39.294Z,100373.19
2022-09-14T06:01:19.017Z,100384.13
2022-09-14T06:03:46.713Z,100380.59
2022-09-14T06:06:15.823Z,100392.09
2022-09-14T06:08:42.504Z,100378.09
2022-09-14T06:11:11.730Z,100360.00
2022-09-14T06:13:38.580Z,100345.44
2022-09-14T06:16:07.482Z,100383.28
2022-09-14T06:18:35.363Z,100382.59
2022-09-14T06:21:03.073Z,100383.47
2022-09-14T06:23:30.858Z,100371.88
2022-09-14T06:25:59.321Z,100381.19
2022-09-14T06:28:26.791Z,100368.69
2022-09-14T06:30:53.323Z,100379.13
2022-09-14T06:33:20.330Z,100366.47
2022-09-14T06:35:57.537Z,100385.34
2022-09-14T06:38:25.053Z,100339.53
2022-09-14T06:40:59.600Z,100374.84
2022-09-14T06:43:28.093Z,100363.25
2022-09-14T06:46:06.183Z,100374.97
2022-09-14T06:48:36.031Z,100373.13
2022-09-14T06:51:24.907Z,100364.91
2022-09-14T06:53:52.118Z,100374.84
2022-09-14T06:56:18.915Z,100354.03
2022-09-14T06:58:45.453Z,100362.41
2022-09-14T07:01:14.984Z,100367.25
2022-09-14T07:03:44.032Z,100367.50
2022-09-14T07:06:16.657Z,100361.66
2022-09-14T07:08:44.214Z,100370.19
2022-09-14T07:11:13.134Z,100382.06
2022-09-14T07:13:39.873Z,100373.91
2022-09-14T07:16:06.845Z,100384.97
2022-09-14T07:18:34.226Z,100363.13
2022-09-14T07:21:12.559Z,100379.03
2022-09-14T07:23:41.594Z,100386.81
2022-09-14T07:26:11.457Z,100381.22
2022-09-14T07:28:38.417Z,100365.88
2022-09-14T07:31:14.020Z,100342.19
2022-09-14T07:33:40.420Z,100355.56
2022-09-14T07:36:08.299Z,100347.25
2022-09-14T07:38:51.682Z,100369.38
2022-09-14T07:41:24.163Z,100369.56
2022-09-14T07:43:52.247Z,100356.28
2022-09-14T07:46:20.462Z,100377.53
2022-09-14T07:48:47.725Z,100377.16
2022-09-14T07:51:16.511Z,100389.25
2022-09-14T07:53:43.473Z,100382.38
2022-09-14T07:56:13.469Z,100344.31
2022-09-14T07:58:40.174Z,100387.78
2022-09-14T08:01:09.360Z,100383.44
2022-09-14T08:03:43.377Z,100387.38
2022-09-14T08:06:15.791Z,100355.53
2022-09-14T08:08:44.357Z,100372.78
2022-09-14T08:11:31.525Z,100374.66
2022-09-14T08:14:04.635Z,100369.00
2022-09-14T08:16:32.810Z,100368.38
2022-09-14T08:19:02.110Z,100373.47
2022-09-14T08:21:30.329Z,100369.88
2022-09-14T08:23:58.189Z,100372.34
2022-09-14T08:26:27.347Z,100355.66
2022-09-14T08:28:55.460Z,100375.38
2022-09-14T08:31:27.251Z,100367.84
2022-09-14T08:34:00.105Z,100352.53
2022-09-14T08:36:29.781Z,100318.59
2022-09-14T08:38:56.196Z,100353.81
2022-09-14T08:41:43.877Z,100358.84
2022-09-14T08:44:13.309Z,100352.13
2022-09-14T08:46:46.340Z,100321.69
2022-09-14T08:49:27.595Z,100319.19
2022-09-14T08:51:54.975Z,100343.72
2022-09-14T08:54:21.505Z,100361.31
2022-09-14T08:56:57.640Z,100308.44
2022-09-14T08:59:38.559Z,100350.66
2022-09-14T09:02:42.601Z,100350.50
2022-09-14T09:05:15.114Z,100347.50
2022-09-14T09:07:57.331Z,100317.53
2022-09-14T09:10:27.046Z,100343.03
2022-09-14T09:13:00.625Z,100311.47
2022-09-14T09:15:32.511Z,100344.75
2022-09-14T09:18:05.402Z,100332.50
2022-09-14T09:20:47.653Z,100327.81
2022-09-14T09:23:19.730Z,100336.25
2022-09-14T09:25:46.077Z,100338.97
2022-09-14T09:28:13.950Z,100301.81
2022-09-14T09:30:41.357Z,100333.44
2022-09-14T09:33:20.055Z,100329.50
2022-09-14T09:35:46.597Z,100333.78
2022-09-14T09:38:16.107Z,100335.78
2022-09-14T09:40:49.202Z,100344.88
2022-09-14T09:43:33.335Z,100335.28
2022-09-14T09:46:07.541Z,100327.59
2022-09-14T09:48:45.400Z,100322.19
2022-09-14T09:51:27.020Z,100318.50
2022-09-14T09:53:58.201Z,100291.31
2022-09-14T09:56:31.418Z,100283.38
2022-09-14T09:58:57.975Z,100302.66
2022-09-14T10:01:29.230Z,100289.50
2022-09-14T10:04:03.804Z,100310.22
2022-09-14T10:06:30.630Z,100296.69
2022-09-14T10:08:58.226Z,100316.53
2022-09-14T10:11:37.653Z,100312.88
2022-09-14T10:14:06.516Z,100321.69
2022-09-14T10:16:42.050Z,100313.34
2022-09-14T10:19:20.389Z,100316.84
2022-09-14T10:22:17.196Z,100305.69
2022-09-14T10:24:56.596Z,100290.53
2022-09-14T10:27:46.110Z,100316.94
2022-09-14T10:30:21.629Z,100297.25
2022-09-14T10:33:00.281Z,100310.38
2022-09-14T10:35:58.525Z,100311.66
2022-09-14T10:38:32.421Z,100316.72
2022-09-14T10:41:13.119Z,100306.06
2022-09-14T10:44:01.085Z,100309.41
2022-09-14T10:46:40.313Z,100306.16
2022-09-14T10:49:29.237Z,100308.28
2022-09-14T10:52:12.183Z,100312.78
2022-09-14T10:54:58.017Z,100306.81
2022-09-14T10:57:44.067Z,100303.19
2022-09-14T11:00:20.201Z,100295.25
2022-09-14T11:03:19.580Z,100297.69
2022-09-14T11:05:55.489Z,100296.66
2022-09-14T11:08:32.924Z,100296.69
2022-09-14T11:11:14.323Z,100309.50
2022-09-14T11:14:04.702Z,100300.19
2022-09-14T11:17:09.019Z,100315.19
2022-09-14T11:19:59.458Z,100286.81
2022-09-14T11:22:41.679Z,100305.63
2022-09-14T11:25:20.424Z,100301.72
2022-09-14T11:27:52.495Z,100310.56
2022-09-14T11:30:22.126Z,100307.31
2022-09-14T11:33:16.700Z,100301.41
2022-09-14T11:35:48.315Z,100301.53
2022-09-14T11:38:28.435Z,100299.72
2022-09-14T11:41:05.506Z,100306.72
2022-09-14T11:43:46.945Z,100313.25
2022-09-14T11:46:19.733Z,100316.88
2022-09-14T11:49:14.525Z,100305.84
2022-09-14T11:52:20.810Z,100315.28
2022-09-14T11:54:48.725Z,100305.63
2022-09-14T11:57:29.657Z,100298.19
2022-09-14T11:59:58.857Z,100277.69
2022-09-14T12:02:25.252Z,100297.56
2022-09-14T12:05:10.418Z,100282.50
2022-09-14T12:07:39.939Z,100284.50
2022-09-14T12:10:15.460Z,100277.25
2022-09-14T12:12:43.208Z,100242.91
2022-09-14T12:15:24.818Z,100281.06
2022-09-14T12:17:53.084Z,100280.53
2022-09-14T12:20:37.773Z,100288.28
2022-09-14T12:23:32.643Z,100272.81
2022-09-14T12:26:11.158Z,100283.00
2022-09-14T12:28:37.814Z,100281.53
2022-09-14T12:31:04.307Z,100292.88
2022-09-14T12:33:33.518Z,100292.25
2022-09-14T12:36:00.632Z,100288.97
2022-09-14T12:38:30.199Z,100297.00
2022-09-14T12:40:58.382Z,100297.41
2022-09-14T12:43:34.450Z,100294.38
2022-09-14T12:46:07.989Z,100289.50
2022-09-14T12:48:47.174Z,100296.81
2022-09-14T12:51:29.093Z,100292.09
2022-09-14T12:54:01.445Z,100291.03
2022-09-14T12:56:51.021Z,100256.97
2022-09-14T12:59:29.448Z,100284.78
2022-09-14T13:02:23.351Z,100291.69
2022-09-14T13:04:54.432Z,100276.59
2022-09-14T13:07:23.080Z,100275.56
2022-09-14T13:09:56.654Z,100276.31
2022-09-14T13:12:34.634Z,100272.41
2022-09-14T13:15:05.856Z,100268.75
2022-09-14T13:17:32.262Z,100263.63
2022-09-14T13:20:02.537Z,100250.81
2022-09-14T13:22:31.832Z,100265.34
2022-09-14T13:25:01.233Z,100258.97
2022-09-14T13:27:37.104Z,100259.19
2022-09-14T13:30:21.781Z,100261.31
2022-09-14T13:32:50.880Z,100239.00
2022-09-14T13:35:28.252Z,100262.22
2022-09-14T13:37:55.259Z,100247.88
2022-09-14T13:40:30.421Z,100237.41
2022-09-14T13:42:58.808Z,100243.66
2022-09-14T13:45:25.671Z,100237.91
2022-09-14T13:47:53.617Z,100246.22
2022-09-14T13:50:23.949Z,100243.59
2022-09-14T13:53:01.773Z,100232.63
2022-09-14T13:55:49.847Z,100228.66
2022-09-14T13:58:19.247Z,100237.03
2022-09-14T14:01:06.065Z,100235.25
2022-09-14T14:03:39.029Z,100234.66
2022-09-14T14:06:22.610Z,100229.22
2022-09-14T14:09:05.774Z,100233.50
2022-09-14T14:11:39.150Z,100231.00
2022-09-14T14:14:30.888Z,100232.66
2022-09-14T14:17:13.424Z,100211.84
2022-09-14T14:19:40.916Z,100211.97
2022-09-14T14:22:19.044Z,100217.88
2022-09-14T14:25:12.207Z,100196.47
2022-09-14T14:27:35.950Z,100217.88
2022-09-14T14:30:13.151Z,100212.91
2022-09-14T14:32:39.612Z,100209.03
2022-09-14T14:35:19.959Z,100204.66
2022-09-14T14:37:47.740Z,100206.63
2022-09-14T14:40:16.193Z,100196.09
2022-09-14T14:42:43.745Z,100200.34
2022-09-14T14:45:17.775Z,100195.59
2022-09-14T14:47:45.646Z,100178.88
2022-09-14T14:50:17.806Z,100195.91
2022-09-14T14:52:47.301Z,100180.44
2022-09-14T14:55:14.639Z,100166.84
2022-09-14T14:57:41.146Z,100168.72
2022-09-14T15:00:17.459Z,100152.88
2022-09-14T15:02:44.186Z,100174.31
2022-09-14T15:05:11.741Z,100181.41
2022-09-14T15:07:38.685Z,100125.25
2022-09-14T15:10:06.263Z,100163.31
2022-09-14T15:12:33.290Z,100157.41
2022-09-14T15:15:00.399Z,100164.63
2022-09-14T15:17:26.863Z,100154.09
2022-09-14T15:19:53.510Z,100128.69
2022-09-14T15:22:19.936Z,100162.22
2022-09-14T15:24:46.321Z,100152.19
2022-09-14T15:27:12.973Z,100153.84
2022-09-14T15:29:39.449Z,100145.41
2022-09-14T15:32:05.952Z,100153.56
2022-09-14T15:34:32.436Z,100147.34
2022-09-14T15:36:59.084Z,100149.81
2022-09-14T15:39:28.539Z,100155.13
2022-09-14T15:41:56.316Z,100147.31
2022-09-14T15:44:23.196Z,100145.75
2022-09-14T15:46:50.215Z,100146.00
2022-09-14T15:49:20.630Z,100143.28
2022-09-14T15:51:49.955Z,100135.59
2022-09-14T15:54:17.723Z,100152.03
2022-09-14T15:56:52.626Z,100148.00
2022-09-14T15:59:20.663Z,100149.75
2022-09-14T16:01:47.835Z,100120.72
2022-09-14T16:04:15.015Z,100138.22
2022-09-14T16:06:41.613Z,100140.78
2022-09-14T16:09:10.652Z,100165.44
2022-09-14T16:11:38.120Z,100156.78
2022-09-14T16:14:05.981Z,100152.84
2022-09-14T16:16:34.065Z,100122.38
2022-09-14T16:19:08.678Z,100143.44
2022-09-14T16:21:35.263Z,100146.78
2022-09-14T16:24:07.181Z,100147.63
2022-09-14T16:26:35.983Z,100144.25
2022-09-14T16:29:02.970Z,100149.28
2022-09-14T16:31:33.155Z,100141.59
2022-09-14T16:34:08.342Z,100134.00
2022-09-14T16:36:37.712Z,100151.63
2022-09-14T16:39:09.368Z,100120.94
2022-09-14T16:41:38.141Z,100141.13
2022-09-14T16:44:06.019Z,100125.34
2022-09-14T16:46:33.778Z,100134.28
2022-09-14T16:49:00.457Z,100125.69
2022-09-14T16:51:30.464Z,100153.84
2022-09-14T16:53:59.271Z,100121.28
2022-09-14T16:56:28.389Z,100138.81
2022-09-14T16:58:56.238Z,100139.53
2022-09-14T17:01:28.745Z,100142.31
2022-09-14T17:03:57.785Z,100142.56
2022-09-14T17:06:27.007Z,100126.28
2022-09-14T17:08:55.294Z,100144.13
2022-09-14T17:11:22.993Z,100138.41
2022-09-14T17:13:49.774Z,100136.56
2022-09-14T17:16:18.750Z,100134.56
2022-09-14T17:18:48.744Z,100141.44
2022-09-14T17:21:18.414Z,100150.00
2022-09-14T17:23:45.210Z,100152.94
2022-09-14T17:26:13.508Z,100154.44
2022-09-14T17:28:40.708Z,100166.53
2022-09-14T17:31:08.538Z,100121.94
2022-09-14T17:33:35.749Z,100116.69
2022-09-14T17:36:04.753Z,100142.72
2022-09-14T17:38:36.669Z,100157.84
2022-09-14T17:41:05.103Z,100163.50
2022-09-14T17:43:33.296Z,100128.56
2022-09-14T17:45:59.829Z,100167.22
2022-09-14T17:48:27.948Z,100138.53
2022-09-14T17:50:54.865Z,100155.38
2022-09-14T17:53:21.344Z,100158.06
2022-09-14T17:55:48.045Z,100141.88
2022-09-14T17:58:19.498Z,100160.78
2022-09-14T18:00:46.352Z,100155.59
2022-09-14T18:03:13.142Z,100144.34
2022-09-14T18:05:39.593Z,100136.88
2022-09-14T18:08:06.346Z,100142.88
2022-09-14T18:10:35.757Z,100163.25
2022-09-14T18:13:02.354Z,100141.44
2022-09-14T18:15:30.984Z,100153.28
2022-09-14T18:17:57.729Z,100153.69
2022-09-14T18:20:24.108Z,100154.91
2022-09-14T18:22:50.741Z,100118.94
2022-09-14T18:25:17.184Z,100140.19
2022-09-14T18:27:43.517Z,100123.47
2022-09-14T18:30:10.786Z,100157.13
2022-09-14T18:32:37.310Z,100146.50
2022-09-14T18:35:03.903Z,100125.09
2022-09-14T18:37:30.854Z,100145.25
2022-09-14T18:39:57.399Z,100145.25
2022-09-14T18:42:23.991Z,100146.25
2022-09-14T18:44:53.898Z,100128.16
2022-09-14T18:47:21.696Z,100150.34
2022-09-14T18:49:49.946Z,100143.25
2022-09-14T18:52:18.094Z,100131.38
2022-09-14T18:54:44.572Z,100144.69
2022-09-14T18:57:11.386Z,100163.19
2022-09-14T18:59:37.755Z,100136.34
2022-09-14T19:02:04.231Z,100148.25
2022-09-14T19:04:30.751Z,100136.78
2022-09-14T19:06:57.109Z,100149.81
2022-09-14T19:09:23.608Z,100113.63
2022-09-14T19:11:50.004Z,100125.69
2022-09-14T19:14:17.435Z,100165.38
2022-09-14T19:16:43.959Z,100147.69
2022-09-14T19:19:14.446Z,100149.72
2022-09-14T19:21:41.139Z,100142.25
2022-09-14T19:24:11.568Z,100146.78
2022-09-14T19:26:45.688Z,100149.66
2022-09-14T19:29:17.865Z,100125.63
2022-09-14T19:31:44.376Z,100121.81
2022-09-14T19:34:11.475Z,100144.66
2022-09-14T19:36:37.916Z,100143.38
2022-09-14T19:39:04.746Z,100142.88
2022-09-14T19:41:33.129Z,100145.88
2022-09-14T19:44:00.531Z,100145.38
2022-09-14T19:46:28.799Z,100141.09
2022-09-14T19:48:55.560Z,100150.56
2022-09-14T19:51:25.257Z,100085.53
2022-09-14T19:53:54.290Z,100149.56
2022-09-14T19:56:25.315Z,100145.66
2022-09-14T19:58:53.703Z,100143.94
2022-09-14T20:01:22.426Z,100142.34
2022-09-14T20:03:49.941Z,100129.22
2022-09-14T20:06:23.505Z,100126.66
2022-09-14T20:08:56.595Z,100107.41
2022-09-14T20:11:25.257Z,100134.75
2022-09-14T20:13:56.949Z,100136.31
2022-09-14T20:16:27.831Z,100130.66
2022-09-14T20:18:55.368Z,100126.66
2022-09-14T20:21:24.216Z,100119.28
2022-09-14T20:24:15.207Z,100124.47
2022-09-14T20:26:42.792Z,100094.84
2022-09-14T20:29:09.206Z,100109.09
2022-09-14T20:31:35.885Z,100124.28
2022-09-14T20:34:02.368Z,100139.25
2022-09-14T20:36:28.750Z,100140.09
2022-09-14T20:38:56.794Z,100142.78
2022-09-14T20:41:25.245Z,100144.19
2022-09-14T20:43:52.908Z,100113.34
2022-09-14T20:46:22.819Z,100147.31
2022-09-14T20:48:50.326Z,100120.69
2022-09-14T20:51:20.018Z,100135.84
2022-09-14T20:53:47.329Z,100143.72
2022-09-14T20:56:16.765Z,100144.63
2022-09-14T20:58:44.111Z,100124.00
2022-09-14T21:01:18.920Z,100148.16
2022-09-14T21:03:46.974Z,100148.16
2022-09-14T21:06:16.466Z,100103.81
2022-09-14T21:08:43.253Z,100150.00
2022-09-14T21:11:13.557Z,100137.41
2022-09-14T21:13:39.887Z,100140.69
2022-09-14T21:16:18.760Z,100128.09
2022-09-14T21:18:47.022Z,100125.13
2022-09-14T21:21:15.971Z,100133.63
2022-09-14T21:23:43.256Z,100129.75
2022-09-14T21:26:10.897Z,100124.94
2022-09-14T21:28:38.588Z,100135.13
2022-09-14T21:31:06.954Z,100140.69
2022-09-14T21:33:35.440Z,100113.47
2022-09-14T21:36:07.916Z,100121.31
2022-09-14T21:38:35.166Z,100101.13
2022-09-14T21:41:02.518Z,100088.53
2022-09-14T21:43:29.356Z,100093.91
2022-09-14T21:45:58.372Z,100119.00
2022-09-14T21:48:25.325Z,100117.16
2022-09-14T21:51:17.189Z,100101.69
2022-09-14T21:53:51.566Z,100076.31
2022-09-14T21:56:18.589Z,100107.03
2022-09-14T21:58:49.154Z,100110.84
2022-09-14T22:01:16.422Z,100078.63
2022-09-14T22:03:43.348Z,100100.09
2022-09-14T22:06:12.574Z,100101.78
2022-09-14T22:08:39.929Z,100107.25
2022-09-14T22:11:08.922Z,100087.44
2022-09-14T22:13:35.434Z,100068.56
2022-09-14T22:16:08.062Z,100099.00
2022-09-14T22:18:36.947Z,100102.72
2022-09-14T22:21:04.846Z,100099.19
2022-09-14T22:23:32.414Z,100099.19
2022-09-14T22:25:59.356Z,100081.69
2022-09-14T22:28:25.826Z,100061.69
2022-09-14T22:30:54.212Z,100046.97
2022-09-14T22:33:22.828Z,100078.16
2022-09-14T22:35:57.693Z,100053.81
2022-09-14T22:38:26.044Z,100053.00
2022-09-14T22:41:00.818Z,100082.16
2022-09-14T22:43:28.175Z,100090.19
2022-09-14T22:45:55.229Z,100075.03
2022-09-14T22:48:23.384Z,100083.63
2022-09-14T22:50:51.819Z,100067.22
2022-09-14T22:53:18.895Z,100057.69
2022-09-14T22:55:45.572Z,100084.44
2022-09-14T22:58:14.320Z,100065.69
2022-09-14T23:00:41.653Z,100039.16
2022-09-14T23:03:09.609Z,100065.47
2022-09-14T23:05:37.848Z,100051.09
2022-09-14T23:08:05.843Z,100044.16
2022-09-14T23:10:35.858Z,100035.69
2022-09-14T23:13:02.227Z,100064.25
2022-09-14T23:15:28.695Z,100019.06
2022-09-14T23:17:55.076Z,100056.59
2022-09-14T23:20:21.484Z,100042.13
2022-09-14T23:22:47.840Z,100051.50
2022-09-14T23:25:14.403Z,100050.31
2022-09-14T23:27:40.824Z,100034.78
2022-09-14T23:30:07.752Z,100017.63
2022-09-14T23:32:34.182Z,100040.09
2022-09-14T23:35:01.284Z,100034.72
2022-09-14T23:37:27.793Z,100036.66
2022-09-14T23:39:54.201Z,100045.88
2022-09-14T23:42:20.538Z,100024.22
2022-09-14T23:44:46.944Z,100049.22
2022-09-14T23:47:13.372Z,100032.22
2022-09-14T23:49:39.851Z,100037.59
2022-09-14T23:52:06.362Z,100040.13
2022-09-14T23:54:32.730Z,100052.63
2022-09-14T23:56:59.315Z,100048.91
2022-09-14T23:59:25.686Z,100045.97
